sensor_id;sensor_type;location;lat;lon;timestamp;P1;durP1;ratioP1;P2;durP2;ratioP2
1837;SDS011;918;50.796;6.772;2022-08-19T00:01:25;14.27;;;13.33;;
1837;SDS011;918;50.796;6.772;2022-08-19T00:03:52;15.83;;;14.63;;
1837;SDS011;918;50.796;6.772;2022-08-19T00:06:17;15.90;;;14.70;;
1837;SDS011;918;50.796;6.772;2022-08-19T00:08:42;16.00;;;14.90;;
1837;SDS011;918;50.796;6.772;2022-08-19T00:11:08;15.73;;;14.57;;
1837;SDS011;918;50.796;6.772;2022-08-19T00:13:34;16.40;;;15.30;;
1837;SDS011;918;50.796;6.772;2022-08-19T00:16:00;16.27;;;14.90;;
1837;SDS011;918;50.796;6.772;2022-08-19T00:18:25;14.90;;;13.80;;
1837;SDS011;918;50.796;6.772;2022-08-19T00:20:51;14.37;;;13.37;;
1837;SDS011;918;50.796;6.772;2022-08-19T00:23:16;16.33;;;14.93;;
1837;SDS011;918;50.796;6.772;2022-08-19T00:25:41;18.57;;;16.73;;
1837;SDS011;918;50.796;6.772;2022-08-19T00:28:07;15.53;;;14.47;;
1837;SDS011;918;50.796;6.772;2022-08-19T00:30:32;15.23;;;14.03;;
1837;SDS011;918;50.796;6.772;2022-08-19T00:32:57;16.80;;;15.50;;
1837;SDS011;918;50.796;6.772;2022-08-19T00:35:23;17.67;;;16.33;;
1837;SDS011;918;50.796;6.772;2022-08-19T00:37:49;16.13;;;14.83;;
1837;SDS011;918;50.796;6.772;2022-08-19T00:40:15;14.67;;;13.63;;
1837;SDS011;918;50.796;6.772;2022-08-19T00:42:42;16.30;;;15.00;;
1837;SDS011;918;50.796;6.772;2022-08-19T00:45:13;16.33;;;15.13;;
1837;SDS011;918;50.796;6.772;2022-08-19T00:47:42;16.20;;;15.00;;
1837;SDS011;918;50.796;6.772;2022-08-19T00:50:08;16.80;;;15.47;;
1837;SDS011;918;50.796;6.772;2022-08-19T00:52:36;16.40;;;15.30;;
1837;SDS011;918;50.796;6.772;2022-08-19T00:55:10;14.67;;;13.60;;
1837;SDS011;918;50.796;6.772;2022-08-19T00:57:37;15.20;;;14.10;;
1837;SDS011;918;50.796;6.772;2022-08-19T01:00:11;15.67;;;14.47;;
1837;SDS011;918;50.796;6.772;2022-08-19T01:02:40;15.03;;;13.73;;
1837;SDS011;918;50.796;6.772;2022-08-19T01:05:07;15.50;;;14.40;;
1837;SDS011;918;50.796;6.772;2022-08-19T01:07:34;15.70;;;14.60;;
1837;SDS011;918;50.796;6.772;2022-08-19T01:10:00;14.53;;;13.53;;
1837;SDS011;918;50.796;6.772;2022-08-19T01:12:26;14.93;;;13.67;;
1837;SDS011;918;50.796;6.772;2022-08-19T01:14:51;15.30;;;14.10;;
1837;SDS011;918;50.796;6.772;2022-08-19T01:17:17;15.70;;;14.57;;
1837;SDS011;918;50.796;6.772;2022-08-19T01:19:43;13.80;;;12.80;;
1837;SDS011;918;50.796;6.772;2022-08-19T01:22:17;16.70;;;15.40;;
1837;SDS011;918;50.796;6.772;2022-08-19T01:24:51;14.63;;;13.53;;
1837;SDS011;918;50.796;6.772;2022-08-19T01:27:16;15.50;;;14.33;;
1837;SDS011;918;50.796;6.772;2022-08-19T01:29:42;15.93;;;14.80;;
1837;SDS011;918;50.796;6.772;2022-08-19T01:32:11;17.37;;;16.00;;
1837;SDS011;918;50.796;6.772;2022-08-19T01:34:38;17.53;;;16.13;;
1837;SDS011;918;50.796;6.772;2022-08-19T01:37:08;17.27;;;15.93;;
1837;SDS011;918;50.796;6.772;2022-08-19T01:39:36;16.50;;;15.30;;
1837;SDS011;918;50.796;6.772;2022-08-19T01:42:03;18.17;;;16.87;;
1837;SDS011;918;50.796;6.772;2022-08-19T01:44:29;18.80;;;17.40;;
1837;SDS011;918;50.796;6.772;2022-08-19T01:46:54;20.40;;;18.60;;
1837;SDS011;918;50.796;6.772;2022-08-19T01:49:21;17.93;;;16.63;;
1837;SDS011;918;50.796;6.772;2022-08-19T01:51:49;18.83;;;17.13;;
1837;SDS011;918;50.796;6.772;2022-08-19T01:54:16;18.60;;;17.10;;
1837;SDS011;918;50.796;6.772;2022-08-19T01:56:42;20.33;;;18.90;;
1837;SDS011;918;50.796;6.772;2022-08-19T01:59:12;19.97;;;18.47;;
1837;SDS011;918;50.796;6.772;2022-08-19T02:01:40;20.90;;;19.30;;
1837;SDS011;918;50.796;6.772;2022-08-19T02:04:05;20.70;;;19.10;;
1837;SDS011;918;50.796;6.772;2022-08-19T02:06:31;20.20;;;18.83;;
1837;SDS011;918;50.796;6.772;2022-08-19T02:08:57;21.33;;;19.73;;
1837;SDS011;918;50.796;6.772;2022-08-19T02:11:27;20.40;;;18.97;;
1837;SDS011;918;50.796;6.772;2022-08-19T02:13:56;20.60;;;18.80;;
1837;SDS011;918;50.796;6.772;2022-08-19T02:16:22;20.10;;;18.33;;
1837;SDS011;918;50.796;6.772;2022-08-19T02:18:47;18.70;;;17.37;;
1837;SDS011;918;50.796;6.772;2022-08-19T02:21:15;19.70;;;18.30;;
1837;SDS011;918;50.796;6.772;2022-08-19T02:23:42;20.30;;;18.70;;
1837;SDS011;918;50.796;6.772;2022-08-19T02:26:08;19.43;;;18.03;;
1837;SDS011;918;50.796;6.772;2022-08-19T02:28:33;21.13;;;19.47;;
1837;SDS011;918;50.796;6.772;2022-08-19T02:30:58;21.67;;;19.90;;
1837;SDS011;918;50.796;6.772;2022-08-19T02:33:25;19.87;;;18.47;;
1837;SDS011;918;50.796;6.772;2022-08-19T02:35:51;22.23;;;20.50;;
1837;SDS011;918;50.796;6.772;2022-08-19T02:38:16;20.63;;;19.13;;
1837;SDS011;918;50.796;6.772;2022-08-19T02:40:57;20.67;;;18.97;;
1837;SDS011;918;50.796;6.772;2022-08-19T02:43:24;20.43;;;19.00;;
1837;SDS011;918;50.796;6.772;2022-08-19T02:45:51;20.40;;;18.93;;
1837;SDS011;918;50.796;6.772;2022-08-19T02:48:20;20.30;;;18.73;;
1837;SDS011;918;50.796;6.772;2022-08-19T02:50:47;21.13;;;19.37;;
1837;SDS011;918;50.796;6.772;2022-08-19T02:53:13;17.93;;;16.53;;
1837;SDS011;918;50.796;6.772;2022-08-19T02:55:42;19.20;;;17.70;;
1837;SDS011;918;50.796;6.772;2022-08-19T02:58:09;20.30;;;18.70;;
1837;SDS011;918;50.796;6.772;2022-08-19T03:00:35;20.27;;;18.57;;
1837;SDS011;918;50.796;6.772;2022-08-19T03:03:00;18.37;;;17.00;;
1837;SDS011;918;50.796;6.772;2022-08-19T03:05:25;18.10;;;16.70;;
1837;SDS011;918;50.796;6.772;2022-08-19T03:07:51;19.10;;;17.70;;
1837;SDS011;918;50.796;6.772;2022-08-19T03:10:17;19.40;;;17.97;;
1837;SDS011;918;50.796;6.772;2022-08-19T03:12:42;20.00;;;18.50;;
1837;SDS011;918;50.796;6.772;2022-08-19T03:15:07;19.47;;;17.97;;
1837;SDS011;918;50.796;6.772;2022-08-19T03:17:34;18.73;;;17.30;;
1837;SDS011;918;50.796;6.772;2022-08-19T03:20:00;19.70;;;18.20;;
1837;SDS011;918;50.796;6.772;2022-08-19T03:22:25;20.53;;;18.93;;
1837;SDS011;918;50.796;6.772;2022-08-19T03:24:50;19.93;;;18.43;;
1837;SDS011;918;50.796;6.772;2022-08-19T03:27:16;18.97;;;17.53;;
1837;SDS011;918;50.796;6.772;2022-08-19T03:29:42;20.70;;;19.10;;
1837;SDS011;918;50.796;6.772;2022-08-19T03:32:07;19.10;;;17.50;;
1837;SDS011;918;50.796;6.772;2022-08-19T03:34:35;18.80;;;17.40;;
1837;SDS011;918;50.796;6.772;2022-08-19T03:37:08;19.37;;;17.87;;
1837;SDS011;918;50.796;6.772;2022-08-19T03:39:37;18.93;;;17.50;;
1837;SDS011;918;50.796;6.772;2022-08-19T03:42:03;18.90;;;17.50;;
1837;SDS011;918;50.796;6.772;2022-08-19T03:44:30;20.40;;;18.90;;
1837;SDS011;918;50.796;6.772;2022-08-19T03:46:57;21.03;;;19.43;;
1837;SDS011;918;50.796;6.772;2022-08-19T03:49:24;20.00;;;18.53;;
1837;SDS011;918;50.796;6.772;2022-08-19T03:51:52;21.40;;;19.70;;
1837;SDS011;918;50.796;6.772;2022-08-19T03:54:19;21.17;;;19.40;;
1837;SDS011;918;50.796;6.772;2022-08-19T03:56:46;21.80;;;20.03;;
1837;SDS011;918;50.796;6.772;2022-08-19T03:59:14;21.77;;;19.97;;
1837;SDS011;918;50.796;6.772;2022-08-19T04:01:41;21.20;;;19.43;;
1837;SDS011;918;50.796;6.772;2022-08-19T04:04:07;21.03;;;19.53;;
1837;SDS011;918;50.796;6.772;2022-08-19T04:06:33;22.23;;;20.43;;
1837;SDS011;918;50.796;6.772;2022-08-19T04:09:02;21.40;;;19.80;;
1837;SDS011;918;50.796;6.772;2022-08-19T04:11:33;21.37;;;19.77;;
1837;SDS011;918;50.796;6.772;2022-08-19T04:13:59;21.40;;;19.70;;
1837;SDS011;918;50.796;6.772;2022-08-19T04:16:25;23.03;;;21.23;;
1837;SDS011;918;50.796;6.772;2022-08-19T04:18:55;22.00;;;20.37;;
1837;SDS011;918;50.796;6.772;2022-08-19T04:21:22;24.03;;;22.13;;
1837;SDS011;918;50.796;6.772;2022-08-19T04:23:49;23.13;;;21.20;;
1837;SDS011;918;50.796;6.772;2022-08-19T04:26:15;21.93;;;20.17;;
1837;SDS011;918;50.796;6.772;2022-08-19T04:28:43;23.90;;;22.10;;
1837;SDS011;918;50.796;6.772;2022-08-19T04:31:19;22.97;;;21.27;;
1837;SDS011;918;50.796;6.772;2022-08-19T04:33:51;24.17;;;22.07;;
1837;SDS011;918;50.796;6.772;2022-08-19T04:36:18;25.10;;;22.97;;
1837;SDS011;918;50.796;6.772;2022-08-19T04:38:45;23.63;;;21.60;;
1837;SDS011;918;50.796;6.772;2022-08-19T04:41:10;26.37;;;24.17;;
1837;SDS011;918;50.796;6.772;2022-08-19T04:43:54;26.33;;;24.13;;
1837;SDS011;918;50.796;6.772;2022-08-19T04:46:20;27.30;;;24.83;;
1837;SDS011;918;50.796;6.772;2022-08-19T04:48:45;26.57;;;24.40;;
1837;SDS011;918;50.796;6.772;2022-08-19T04:51:11;26.70;;;24.43;;
1837;SDS011;918;50.796;6.772;2022-08-19T04:53:38;24.83;;;22.83;;
1837;SDS011;918;50.796;6.772;2022-08-19T04:56:10;23.13;;;21.30;;
1837;SDS011;918;50.796;6.772;2022-08-19T04:58:37;25.00;;;23.00;;
1837;SDS011;918;50.796;6.772;2022-08-19T05:01:04;23.43;;;21.53;;
1837;SDS011;918;50.796;6.772;2022-08-19T05:03:29;26.70;;;23.90;;
1837;SDS011;918;50.796;6.772;2022-08-19T05:05:58;26.13;;;23.93;;
1837;SDS011;918;50.796;6.772;2022-08-19T05:08:29;25.73;;;23.73;;
1837;SDS011;918;50.796;6.772;2022-08-19T05:10:55;25.90;;;23.80;;
1837;SDS011;918;50.796;6.772;2022-08-19T05:13:22;26.33;;;24.07;;
1837;SDS011;918;50.796;6.772;2022-08-19T05:15:54;25.47;;;23.40;;
1837;SDS011;918;50.796;6.772;2022-08-19T05:18:21;27.27;;;25.07;;
1837;SDS011;918;50.796;6.772;2022-08-19T05:21:10;27.07;;;24.97;;
1837;SDS011;918;50.796;6.772;2022-08-19T05:23:55;28.80;;;26.23;;
1837;SDS011;918;50.796;6.772;2022-08-19T05:26:20;29.07;;;26.37;;
1837;SDS011;918;50.796;6.772;2022-08-19T05:28:46;30.10;;;27.40;;
1837;SDS011;918;50.796;6.772;2022-08-19T05:31:11;31.07;;;28.40;;
1837;SDS011;918;50.796;6.772;2022-08-19T05:33:37;32.43;;;29.73;;
1837;SDS011;918;50.796;6.772;2022-08-19T05:36:04;32.67;;;29.97;;
1837;SDS011;918;50.796;6.772;2022-08-19T05:38:30;32.93;;;30.17;;
1837;SDS011;918;50.796;6.772;2022-08-19T05:40:56;32.23;;;29.37;;
1837;SDS011;918;50.796;6.772;2022-08-19T05:43:21;35.27;;;32.27;;
1837;SDS011;918;50.796;6.772;2022-08-19T05:45:46;34.97;;;31.80;;
1837;SDS011;918;50.796;6.772;2022-08-19T05:48:12;34.87;;;31.87;;
1837;SDS011;918;50.796;6.772;2022-08-19T05:50:39;35.97;;;32.90;;
1837;SDS011;918;50.796;6.772;2022-08-19T05:53:05;34.63;;;31.83;;
1837;SDS011;918;50.796;6.772;2022-08-19T05:55:31;33.57;;;30.83;;
1837;SDS011;918;50.796;6.772;2022-08-19T05:57:56;35.20;;;32.30;;
1837;SDS011;918;50.796;6.772;2022-08-19T06:00:22;35.93;;;33.03;;
1837;SDS011;918;50.796;6.772;2022-08-19T06:02:48;37.40;;;34.30;;
1837;SDS011;918;50.796;6.772;2022-08-19T06:05:13;38.37;;;35.17;;
1837;SDS011;918;50.796;6.772;2022-08-19T06:07:38;34.80;;;31.80;;
1837;SDS011;918;50.796;6.772;2022-08-19T06:10:04;37.27;;;33.87;;
1837;SDS011;918;50.796;6.772;2022-08-19T06:12:32;37.83;;;34.70;;
1837;SDS011;918;50.796;6.772;2022-08-19T06:14:59;36.87;;;33.77;;
1837;SDS011;918;50.796;6.772;2022-08-19T06:17:25;36.73;;;33.60;;
1837;SDS011;918;50.796;6.772;2022-08-19T06:19:51;36.10;;;33.20;;
1837;SDS011;918;50.796;6.772;2022-08-19T06:22:16;34.97;;;31.83;;
1837;SDS011;918;50.796;6.772;2022-08-19T06:24:42;35.83;;;32.77;;
1837;SDS011;918;50.796;6.772;2022-08-19T06:27:07;36.93;;;33.63;;
1837;SDS011;918;50.796;6.772;2022-08-19T06:29:33;35.13;;;32.33;;
1837;SDS011;918;50.796;6.772;2022-08-19T06:31:59;33.00;;;30.27;;
1837;SDS011;918;50.796;6.772;2022-08-19T06:34:27;35.30;;;32.30;;
1837;SDS011;918;50.796;6.772;2022-08-19T06:36:54;35.27;;;32.17;;
1837;SDS011;918;50.796;6.772;2022-08-19T06:39:24;35.17;;;31.97;;
1837;SDS011;918;50.796;6.772;2022-08-19T06:41:53;34.33;;;31.43;;
1837;SDS011;918;50.796;6.772;2022-08-19T06:44:21;31.00;;;28.30;;
1837;SDS011;918;50.796;6.772;2022-08-19T06:46:47;33.50;;;30.73;;
1837;SDS011;918;50.796;6.772;2022-08-19T06:49:14;31.30;;;28.60;;
1837;SDS011;918;50.796;6.772;2022-08-19T06:51:40;31.47;;;28.77;;
1837;SDS011;918;50.796;6.772;2022-08-19T06:54:07;31.70;;;29.03;;
1837;SDS011;918;50.796;6.772;2022-08-19T06:56:33;28.93;;;26.47;;
1837;SDS011;918;50.796;6.772;2022-08-19T06:59:06;29.73;;;27.10;;
1837;SDS011;918;50.796;6.772;2022-08-19T07:01:42;27.97;;;25.67;;
1837;SDS011;918;50.796;6.772;2022-08-19T07:04:13;28.40;;;25.80;;
1837;SDS011;918;50.796;6.772;2022-08-19T07:06:42;29.73;;;27.33;;
1837;SDS011;918;50.796;6.772;2022-08-19T07:09:09;28.30;;;26.03;;
1837;SDS011;918;50.796;6.772;2022-08-19T07:11:35;28.20;;;25.87;;
1837;SDS011;918;50.796;6.772;2022-08-19T07:14:01;29.70;;;27.10;;
1837;SDS011;918;50.796;6.772;2022-08-19T07:16:27;28.20;;;25.80;;
1837;SDS011;918;50.796;6.772;2022-08-19T07:18:53;27.87;;;25.63;;
1837;SDS011;918;50.796;6.772;2022-08-19T07:21:20;28.60;;;26.23;;
1837;SDS011;918;50.796;6.772;2022-08-19T07:23:47;34.77;;;31.67;;
1837;SDS011;918;50.796;6.772;2022-08-19T07:26:17;35.80;;;32.80;;
1837;SDS011;918;50.796;6.772;2022-08-19T07:28:44;35.03;;;31.90;;
1837;SDS011;918;50.796;6.772;2022-08-19T07:31:12;32.57;;;29.63;;
1837;SDS011;918;50.796;6.772;2022-08-19T07:33:39;37.07;;;33.87;;
1837;SDS011;918;50.796;6.772;2022-08-19T07:36:05;38.07;;;34.70;;
1837;SDS011;918;50.796;6.772;2022-08-19T07:38:32;38.60;;;35.13;;
1837;SDS011;918;50.796;6.772;2022-08-19T07:40:57;39.90;;;36.20;;
1837;SDS011;918;50.796;6.772;2022-08-19T07:43:23;39.20;;;35.70;;
1837;SDS011;918;50.796;6.772;2022-08-19T07:45:50;41.53;;;37.63;;
1837;SDS011;918;50.796;6.772;2022-08-19T07:48:22;40.50;;;36.80;;
1837;SDS011;918;50.796;6.772;2022-08-19T07:50:51;43.30;;;38.97;;
1837;SDS011;918;50.796;6.772;2022-08-19T07:53:21;40.07;;;36.33;;
1837;SDS011;918;50.796;6.772;2022-08-19T07:55:48;43.37;;;39.10;;
1837;SDS011;918;50.796;6.772;2022-08-19T07:58:15;42.30;;;38.20;;
1837;SDS011;918;50.796;6.772;2022-08-19T08:00:42;43.17;;;39.10;;
1837;SDS011;918;50.796;6.772;2022-08-19T08:03:09;46.30;;;41.83;;
1837;SDS011;918;50.796;6.772;2022-08-19T08:05:34;44.80;;;40.67;;
1837;SDS011;918;50.796;6.772;2022-08-19T08:08:18;41.33;;;37.23;;
1837;SDS011;918;50.796;6.772;2022-08-19T08:11:06;41.87;;;37.77;;
1837;SDS011;918;50.796;6.772;2022-08-19T08:13:32;39.73;;;35.90;;
1837;SDS011;918;50.796;6.772;2022-08-19T08:16:00;42.73;;;38.63;;
1837;SDS011;918;50.796;6.772;2022-08-19T08:18:26;40.60;;;36.60;;
1837;SDS011;918;50.796;6.772;2022-08-19T08:20:51;43.50;;;39.40;;
1837;SDS011;918;50.796;6.772;2022-08-19T08:23:16;44.83;;;40.53;;
1837;SDS011;918;50.796;6.772;2022-08-19T08:25:49;41.70;;;37.50;;
1837;SDS011;918;50.796;6.772;2022-08-19T08:28:16;40.47;;;36.43;;
1837;SDS011;918;50.796;6.772;2022-08-19T08:30:42;39.77;;;35.77;;
1837;SDS011;918;50.796;6.772;2022-08-19T08:33:08;39.40;;;35.60;;
1837;SDS011;918;50.796;6.772;2022-08-19T08:35:33;38.47;;;34.63;;
1837;SDS011;918;50.796;6.772;2022-08-19T08:37:59;34.63;;;31.33;;
1837;SDS011;918;50.796;6.772;2022-08-19T08:43:03;34.90;;;31.70;;
1837;SDS011;918;50.796;6.772;2022-08-19T08:45:32;35.33;;;32.07;;
1837;SDS011;918;50.796;6.772;2022-08-19T08:48:02;32.20;;;29.40;;
1837;SDS011;918;50.796;6.772;2022-08-19T08:50:37;29.03;;;26.57;;
1837;SDS011;918;50.796;6.772;2022-08-19T08:53:06;28.07;;;25.47;;
1837;SDS011;918;50.796;6.772;2022-08-19T08:55:33;27.23;;;24.40;;
1837;SDS011;918;50.796;6.772;2022-08-19T08:58:00;27.90;;;25.60;;
1837;SDS011;918;50.796;6.772;2022-08-19T09:03:02;18.67;;;17.17;;
1837;SDS011;918;50.796;6.772;2022-08-19T09:05:41;19.23;;;17.63;;
1837;SDS011;918;50.796;6.772;2022-08-19T09:11:03;16.30;;;14.93;;
1837;SDS011;918;50.796;6.772;2022-08-19T09:13:35;14.40;;;13.30;;
1837;SDS011;918;50.796;6.772;2022-08-19T09:16:10;16.20;;;14.80;;
1837;SDS011;918;50.796;6.772;2022-08-19T09:18:38;15.20;;;14.03;;
1837;SDS011;918;50.796;6.772;2022-08-19T09:21:26;14.03;;;12.03;;
1837;SDS011;918;50.796;6.772;2022-08-19T09:23:52;13.17;;;12.10;;
1837;SDS011;918;50.796;6.772;2022-08-19T09:26:18;11.97;;;11.10;;
1837;SDS011;918;50.796;6.772;2022-08-19T09:28:46;10.53;;;9.73;;
1837;SDS011;918;50.796;6.772;2022-08-19T09:31:17;10.37;;;9.57;;
1837;SDS011;918;50.796;6.772;2022-08-19T09:33:44;12.20;;;11.20;;
1837;SDS011;918;50.796;6.772;2022-08-19T09:36:11;10.57;;;9.77;;
1837;SDS011;918;50.796;6.772;2022-08-19T09:38:38;10.83;;;10.07;;
1837;SDS011;918;50.796;6.772;2022-08-19T09:41:06;11.70;;;10.73;;
1837;SDS011;918;50.796;6.772;2022-08-19T09:43:33;10.20;;;9.30;;
1837;SDS011;918;50.796;6.772;2022-08-19T09:46:02;10.00;;;9.27;;
1837;SDS011;918;50.796;6.772;2022-08-19T09:48:30;8.57;;;7.97;;
1837;SDS011;918;50.796;6.772;2022-08-19T09:51:02;7.97;;;7.43;;
1837;SDS011;918;50.796;6.772;2022-08-19T09:53:28;11.60;;;10.70;;
1837;SDS011;918;50.796;6.772;2022-08-19T09:55:57;10.63;;;9.90;;
1837;SDS011;918;50.796;6.772;2022-08-19T09:58:22;11.20;;;10.47;;
1837;SDS011;918;50.796;6.772;2022-08-19T10:00:52;12.37;;;11.37;;
1837;SDS011;918;50.796;6.772;2022-08-19T10:03:18;13.73;;;12.63;;
1837;SDS011;918;50.796;6.772;2022-08-19T10:05:44;13.87;;;12.77;;
1837;SDS011;918;50.796;6.772;2022-08-19T10:08:15;13.00;;;12.00;;
1837;SDS011;918;50.796;6.772;2022-08-19T10:10:42;13.30;;;12.20;;
1837;SDS011;918;50.796;6.772;2022-08-19T10:13:11;14.50;;;13.40;;
1837;SDS011;918;50.796;6.772;2022-08-19T10:15:36;11.50;;;10.60;;
1837;SDS011;918;50.796;6.772;2022-08-19T10:18:04;16.00;;;14.60;;
1837;SDS011;918;50.796;6.772;2022-08-19T10:20:30;13.90;;;12.80;;
1837;SDS011;918;50.796;6.772;2022-08-19T10:22:55;15.37;;;14.17;;
1837;SDS011;918;50.796;6.772;2022-08-19T10:25:20;11.90;;;10.90;;
1837;SDS011;918;50.796;6.772;2022-08-19T10:27:45;17.73;;;16.10;;
1837;SDS011;918;50.796;6.772;2022-08-19T10:30:11;19.07;;;17.70;;
1837;SDS011;918;50.796;6.772;2022-08-19T10:32:37;15.27;;;14.07;;
1837;SDS011;918;50.796;6.772;2022-08-19T10:35:03;16.07;;;14.87;;
1837;SDS011;918;50.796;6.772;2022-08-19T10:37:32;37.80;;;19.33;;
1837;SDS011;918;50.796;6.772;2022-08-19T10:39:58;19.40;;;15.80;;
1837;SDS011;918;50.796;6.772;2022-08-19T10:42:23;19.60;;;15.00;;
1837;SDS011;918;50.796;6.772;2022-08-19T10:44:49;23.10;;;16.97;;
1837;SDS011;918;50.796;6.772;2022-08-19T10:47:15;18.57;;;17.17;;
1837;SDS011;918;50.796;6.772;2022-08-19T10:49:40;20.03;;;18.43;;
1837;SDS011;918;50.796;6.772;2022-08-19T10:52:26;18.53;;;17.13;;
1837;SDS011;918;50.796;6.772;2022-08-19T10:55:01;124.37;;;30.50;;
1837;SDS011;918;50.796;6.772;2022-08-19T10:57:46;22.60;;;18.30;;
1837;SDS011;918;50.796;6.772;2022-08-19T11:00:12;70.83;;;24.37;;
1837;SDS011;918;50.796;6.772;2022-08-19T11:02:38;231.50;;;38.63;;
1837;SDS011;918;50.796;6.772;2022-08-19T11:05:04;23.13;;;19.93;;
1837;SDS011;918;50.796;6.772;2022-08-19T11:07:31;19.73;;;18.03;;
1837;SDS011;918;50.796;6.772;2022-08-19T11:09:57;18.90;;;17.03;;
1837;SDS011;918;50.796;6.772;2022-08-19T11:12:22;41.93;;;19.80;;
1837;SDS011;918;50.796;6.772;2022-08-19T11:14:48;29.10;;;16.97;;
1837;SDS011;918;50.796;6.772;2022-08-19T11:17:14;21.07;;;17.13;;
1837;SDS011;918;50.796;6.772;2022-08-19T11:19:40;23.40;;;20.67;;
1837;SDS011;918;50.796;6.772;2022-08-19T11:22:07;17.57;;;16.23;;
1837;SDS011;918;50.796;6.772;2022-08-19T11:24:34;20.70;;;18.53;;
1837;SDS011;918;50.796;6.772;2022-08-19T11:27:01;136.53;;;25.60;;
1837;SDS011;918;50.796;6.772;2022-08-19T11:29:31;31.93;;;20.00;;
1837;SDS011;918;50.796;6.772;2022-08-19T11:31:58;24.63;;;19.10;;
1837;SDS011;918;50.796;6.772;2022-08-19T11:34:27;21.23;;;19.10;;
1837;SDS011;918;50.796;6.772;2022-08-19T11:36:53;20.37;;;18.57;;
1837;SDS011;918;50.796;6.772;2022-08-19T11:39:22;17.40;;;15.90;;
1837;SDS011;918;50.796;6.772;2022-08-19T11:41:48;20.60;;;18.90;;
1837;SDS011;918;50.796;6.772;2022-08-19T11:44:14;19.60;;;18.20;;
1837;SDS011;918;50.796;6.772;2022-08-19T11:46:40;20.27;;;18.77;;
1837;SDS011;918;50.796;6.772;2022-08-19T11:49:06;20.37;;;18.77;;
1837;SDS011;918;50.796;6.772;2022-08-19T11:51:32;19.27;;;17.77;;
1837;SDS011;918;50.796;6.772;2022-08-19T11:53:58;17.70;;;16.40;;
1837;SDS011;918;50.796;6.772;2022-08-19T11:56:25;22.27;;;20.37;;
1837;SDS011;918;50.796;6.772;2022-08-19T11:58:51;22.27;;;20.57;;
1837;SDS011;918;50.796;6.772;2022-08-19T12:01:18;20.63;;;19.13;;
1837;SDS011;918;50.796;6.772;2022-08-19T12:03:45;19.77;;;18.40;;
1837;SDS011;918;50.796;6.772;2022-08-19T12:06:17;18.47;;;16.97;;
1837;SDS011;918;50.796;6.772;2022-08-19T12:08:45;16.87;;;15.57;;
1837;SDS011;918;50.796;6.772;2022-08-19T12:11:11;19.60;;;18.10;;
1837;SDS011;918;50.796;6.772;2022-08-19T12:13:37;21.87;;;20.20;;
1837;SDS011;918;50.796;6.772;2022-08-19T12:16:07;18.50;;;16.90;;
1837;SDS011;918;50.796;6.772;2022-08-19T12:18:37;17.57;;;16.20;;
1837;SDS011;918;50.796;6.772;2022-08-19T12:21:02;14.93;;;13.77;;
1837;SDS011;918;50.796;6.772;2022-08-19T12:23:28;17.07;;;15.67;;
1837;SDS011;918;50.796;6.772;2022-08-19T12:25:53;17.27;;;15.63;;
1837;SDS011;918;50.796;6.772;2022-08-19T12:28:20;15.00;;;13.87;;
1837;SDS011;918;50.796;6.772;2022-08-19T12:30:46;16.67;;;15.37;;
1837;SDS011;918;50.796;6.772;2022-08-19T12:33:12;14.50;;;13.47;;
1837;SDS011;918;50.796;6.772;2022-08-19T12:35:42;15.37;;;13.87;;
1837;SDS011;918;50.796;6.772;2022-08-19T12:38:08;13.27;;;12.17;;
1837;SDS011;918;50.796;6.772;2022-08-19T12:40:34;17.07;;;15.57;;
1837;SDS011;918;50.796;6.772;2022-08-19T12:42:59;17.60;;;16.30;;
1837;SDS011;918;50.796;6.772;2022-08-19T12:45:25;16.00;;;14.60;;
1837;SDS011;918;50.796;6.772;2022-08-19T12:47:50;14.73;;;13.53;;
1837;SDS011;918;50.796;6.772;2022-08-19T12:50:17;16.40;;;15.03;;
1837;SDS011;918;50.796;6.772;2022-08-19T12:52:43;16.70;;;15.40;;
1837;SDS011;918;50.796;6.772;2022-08-19T12:55:08;15.10;;;13.97;;
1837;SDS011;918;50.796;6.772;2022-08-19T12:57:34;12.97;;;11.87;;
1837;SDS011;918;50.796;6.772;2022-08-19T13:00:02;14.33;;;13.13;;
1837;SDS011;918;50.796;6.772;2022-08-19T13:02:36;13.43;;;12.40;;
1837;SDS011;918;50.796;6.772;2022-08-19T13:05:03;15.90;;;14.60;;
1837;SDS011;918;50.796;6.772;2022-08-19T13:07:31;13.60;;;12.50;;
1837;SDS011;918;50.796;6.772;2022-08-19T13:09:56;14.50;;;13.40;;
1837;SDS011;918;50.796;6.772;2022-08-19T13:12:22;15.13;;;14.00;;
1837;SDS011;918;50.796;6.772;2022-08-19T13:14:49;13.23;;;12.27;;
1837;SDS011;918;50.796;6.772;2022-08-19T13:17:15;14.77;;;13.73;;
1837;SDS011;918;50.796;6.772;2022-08-19T13:19:40;14.17;;;11.37;;
1837;SDS011;918;50.796;6.772;2022-08-19T13:22:06;12.73;;;11.67;;
1837;SDS011;918;50.796;6.772;2022-08-19T13:24:32;11.90;;;10.80;;
1837;SDS011;918;50.796;6.772;2022-08-19T13:26:58;12.73;;;11.43;;
1837;SDS011;918;50.796;6.772;2022-08-19T13:29:24;14.07;;;12.80;;
1837;SDS011;918;50.796;6.772;2022-08-19T13:32:07;12.23;;;11.37;;
1837;SDS011;918;50.796;6.772;2022-08-19T13:34:51;10.90;;;10.00;;
1837;SDS011;918;50.796;6.772;2022-08-19T13:37:16;12.67;;;11.50;;
1837;SDS011;918;50.796;6.772;2022-08-19T13:40:02;11.33;;;10.43;;
1837;SDS011;918;50.796;6.772;2022-08-19T13:42:28;12.27;;;11.27;;
1837;SDS011;918;50.796;6.772;2022-08-19T13:44:56;13.43;;;12.43;;
1837;SDS011;918;50.796;6.772;2022-08-19T13:47:21;12.53;;;11.23;;
1837;SDS011;918;50.796;6.772;2022-08-19T13:49:46;12.60;;;11.60;;
1837;SDS011;918;50.796;6.772;2022-08-19T13:52:12;13.73;;;12.53;;
1837;SDS011;918;50.796;6.772;2022-08-19T13:54:38;14.53;;;13.17;;
1837;SDS011;918;50.796;6.772;2022-08-19T13:57:03;11.37;;;10.47;;
1837;SDS011;918;50.796;6.772;2022-08-19T13:59:28;12.77;;;11.73;;
1837;SDS011;918;50.796;6.772;2022-08-19T14:01:57;14.07;;;12.67;;
1837;SDS011;918;50.796;6.772;2022-08-19T14:04:23;14.77;;;13.57;;
1837;SDS011;918;50.796;6.772;2022-08-19T14:06:48;14.80;;;13.53;;
1837;SDS011;918;50.796;6.772;2022-08-19T14:09:13;11.20;;;10.30;;
1837;SDS011;918;50.796;6.772;2022-08-19T14:11:39;11.03;;;10.10;;
1837;SDS011;918;50.796;6.772;2022-08-19T14:14:04;9.90;;;8.87;;
1837;SDS011;918;50.796;6.772;2022-08-19T14:16:29;8.10;;;7.40;;
1837;SDS011;918;50.796;6.772;2022-08-19T14:18:55;8.47;;;7.87;;
1837;SDS011;918;50.796;6.772;2022-08-19T14:21:21;8.97;;;8.10;;
1837;SDS011;918;50.796;6.772;2022-08-19T14:23:48;9.30;;;8.50;;
1837;SDS011;918;50.796;6.772;2022-08-19T14:26:14;13.50;;;7.27;;
1837;SDS011;918;50.796;6.772;2022-08-19T14:28:41;7.93;;;6.73;;
1837;SDS011;918;50.796;6.772;2022-08-19T14:31:07;5.30;;;4.77;;
1837;SDS011;918;50.796;6.772;2022-08-19T14:33:33;6.70;;;4.27;;
1837;SDS011;918;50.796;6.772;2022-08-19T14:35:59;4.30;;;3.90;;
1837;SDS011;918;50.796;6.772;2022-08-19T14:38:25;3.40;;;3.20;;
1837;SDS011;918;50.796;6.772;2022-08-19T14:40:50;3.83;;;3.53;;
1837;SDS011;918;50.796;6.772;2022-08-19T14:43:16;4.30;;;3.90;;
1837;SDS011;918;50.796;6.772;2022-08-19T14:45:42;3.53;;;3.23;;
1837;SDS011;918;50.796;6.772;2022-08-19T14:48:08;4.30;;;4.10;;
1837;SDS011;918;50.796;6.772;2022-08-19T14:50:34;3.70;;;3.40;;
1837;SDS011;918;50.796;6.772;2022-08-19T14:53:01;6.20;;;3.93;;
1837;SDS011;918;50.796;6.772;2022-08-19T14:55:29;3.93;;;3.60;;
1837;SDS011;918;50.796;6.772;2022-08-19T14:57:54;4.23;;;3.83;;
1837;SDS011;918;50.796;6.772;2022-08-19T15:00:20;4.30;;;3.90;;
1837;SDS011;918;50.796;6.772;2022-08-19T15:02:46;4.53;;;4.10;;
1837;SDS011;918;50.796;6.772;2022-08-19T15:05:11;4.13;;;3.80;;
1837;SDS011;918;50.796;6.772;2022-08-19T15:07:37;5.10;;;4.10;;
1837;SDS011;918;50.796;6.772;2022-08-19T15:10:03;4.73;;;4.00;;
1837;SDS011;918;50.796;6.772;2022-08-19T15:12:31;4.20;;;3.80;;